中部国際空港の過去48時間の天気

中部国際空港 (Chubu Centrair International)

現在時刻: 6/3 22:00 JST (6/3 13:00 UTC) 以下の時間は現地時間です。

過去48時間のMETAR気象情報
時間 風向 風速(m/s) 視程 気温(℃) 湿度(%) 気圧(hPa) 天気現象
3 21:30 東南東 2 10km以上 23 69 1005
3 21:00 2 10km以上 24 61 1005
3 20:30 2 10km以上 24 61 1005
3 20:00 不定 1 10km以上 24 61 1005
3 19:30 南南東 3 10km以上 24 65 1005
3 19:00 南東 4 10km以上 24 61 1005
3 18:30 南南東 4 10km以上 24 65 1005
3 18:00 南南東 3 10km以上 24 65 1004
3 17:30 南南東 3 10km以上 25 65 1004
3 17:00 南南東 5 10km以上 25 65 1004
3 16:30 南南東 4 10km以上 25 57 1004
3 16:00 4 10km以上 25 65 1004
3 15:30 4 10km以上 26 61 1004
3 15:00 4 10km以上 25 65 1005
3 14:30 3 10km以上 26 61 1005
3 14:00 南南西 2 10km以上 25 65 1005
3 13:30 南南西 2 10km以上 26 58 1005
3 13:00 南西 2 10km以上 26 58 1005
3 12:30 西北西 2 10km以上 26 65 1005
3 12:00 南南西 3 10km以上 25 65 1006
3 11:30 西南西 3 10km以上 26 58 1006
3 11:00 西 2 10km以上 26 58 1006
3 10:30 北西 2 10km以上 25 61 1006
3 10:00 北西 3 10km以上 24 65 1006
3 09:30 北西 3 10km以上 24 69 1006
3 09:00 北北西 3 9000m 24 69 1006
3 08:30 西北西 3 9000m 24 65 1006
3 08:00 西北西 3 10km以上 23 73 1006
3 07:30 北西 3 10km以上 23 73 1006
3 07:00 北西 3 10km以上 23 73 1006
3 06:30 北西 3 10km以上 22 73 1006
3 06:00 西北西 3 10km以上 22 73 1006
3 05:30 西北西 3 10km以上 22 78 1006
3 05:00 西北西 3 8000m 22 78 1006
3 04:30 西 4 8000m 22 78 1006
3 04:00 北北西 2 10km以上 21 88 1005
3 03:30 1 10km以上 21 83 1005
3 03:00 3 10km以上 20 88 1005
3 02:30 北北西 4 10km以上 22 88 1005
3 02:00 北西 5 10km以上 22 88 1005
3 01:30 西北西 5 10km以上 22 73 1005
3 01:00 西 6 10km以上 22 73 1005
3 00:30 西 4 10km以上 22 73 1005
3 00:00 西 3 10km以上 23 69 1005
2 23:30 西 3 10km以上 23 73 1005
2 23:00 西 3 10km以上 23 69 1006
2 22:30 西 4 10km以上 23 69 1006
2 22:00 5 10km以上 23 83 1006
2 21:30 3 10km以上 22 88 1006
2 21:00 3 10km以上 22 83 1006
2 20:30 4 10km以上 23 78 1006
2 20:00 南南東 5 10km以上 23 78 1005
2 19:30 5 10km以上 23 78 1005
2 19:00 5 10km以上 23 78 1005
2 18:30 6 10km以上 24 78 1005
2 18:00 6 10km以上 24 78 1005
2 17:30 7 10km以上 25 74 1005
2 17:00 7 10km以上 25 74 1005
2 16:30 6 10km以上 26 70 1005
2 16:00 6 10km以上 26 70 1005
2 15:30 6 10km以上 26 70 1005
2 15:00 7 10km以上 26 74 1005
2 14:30 6 10km以上 26 70 1006
2 14:00 6 10km以上 26 70 1006
2 13:30 西南西 2 10km以上 28 51 1006
2 13:00 西南西 1 10km以上 28 51 1006
2 12:30 不定 1 10km以上 27 51 1006
2 12:00 北北西 3 10km以上 27 51 1007
2 11:30 北西 2 10km以上 26 61 1007
2 11:00 北西 3 10km以上 26 54 1007
2 10:30 西 2 10km以上 25 69 1008
2 10:00 西北西 2 10km以上 24 74 1008
2 09:30 不定 1 10km以上 23 78 1008
2 09:00 不定 1 10km以上 24 78 1008
2 08:30 不定 1 10km以上 23 78 1009
2 08:00 不定 1 10km以上 23 83 1009
2 07:30 南西 2 10km以上 22 88 1009
2 07:00 不定 1 10km以上 22 88 1009
2 06:30 南南東 2 10km以上 21 88 1008
2 06:00 南東 2 10km以上 21 88 1008
2 05:30 不定 1 10km以上 21 88 1008
2 05:00 2 10km以上 20 88 1008
2 04:30 静穏 0 10km以上 21 88 1008
2 04:00 西 2 10km以上 21 88 1008
2 03:30 静穏 0 10km以上 21 88 1008
2 03:00 1 10km以上 20 94 1007
2 02:30 南南東 1 10km以上 21 88 1008 周辺でしゅう雨
2 02:00 南西 2 10km以上 21 88 1008 周辺でしゅう雨
2 01:30 南南東 2 10km以上 21 88 1007
2 01:00 2 10km以上 21 88 1008 周辺でしゅう雨
2 00:30 2 10km以上 21 88 1008 周辺でしゅう雨
2 00:00 南南西 3 10km以上 21 88 1009 周辺でしゅう雨
1 23:30 3 10km以上 21 88 1009
RJGG 031230Z 12004KT 9999 FEW030 BKN/// 23/17 Q1005 NOSIG
RJGG 031200Z 09004KT 9999 FEW030 BKN/// 24/16 Q1005 NOSIG
RJGG 031130Z 08003KT 9999 FEW030 BKN/// 24/16 Q1005 NOSIG
RJGG 031100Z VRB02KT 9999 FEW030 BKN/// 24/16 Q1005 NOSIG
RJGG 031030Z 15006KT 9999 FEW030 BKN/// 24/17 Q1005 NOSIG
RJGG 031000Z 14007KT 9999 FEW030 BKN/// 24/16 Q1005 NOSIG
RJGG 030930Z 16007KT 9999 FEW025 BKN/// 24/17 Q1005 NOSIG
RJGG 030900Z 15005KT 9999 FEW025 BKN/// 24/17 Q1004 NOSIG
RJGG 030830Z 15006KT 9999 FEW025 BKN/// 25/18 Q1004 NOSIG
RJGG 030800Z 16009KT 9999 FEW025 BKN/// 25/18 Q1004 NOSIG
RJGG 030730Z 16007KT 9999 FEW025 BKN/// 25/16 Q1004 NOSIG
RJGG 030700Z 17007KT 9999 FEW025 BKN/// 25/18 Q1004 NOSIG
RJGG 030630Z 17008KT 9999 FEW020 BKN/// 26/18 Q1004 NOSIG
RJGG 030600Z 17008KT 9999 FEW020 SCT180 BKN/// 25/18 Q1005 NOSIG
RJGG 030530Z 18005KT 9999 FEW020 BKN/// 26/18 Q1005 NOSIG
RJGG 030500Z 21003KT 9999 FEW020 BKN/// 25/18 Q1005 NOSIG
RJGG 030430Z 21004KT 9999 FEW020 BKN/// 26/17 Q1005 NOSIG
RJGG 030400Z 23003KT 9999 FEW020 BKN/// 26/17 Q1005 NOSIG
RJGG 030330Z 29003KT 9999 FEW020 BKN/// 26/19 Q1005 BECMG TL0400 22005KT
RJGG 030300Z 21006KT 9999 FEW020 BKN/// 25/18 Q1006 NOSIG
RJGG 030230Z 25005KT 9999 FEW020 BKN/// 26/17 Q1006 NOSIG
RJGG 030200Z 28003KT 9999 FEW020 BKN/// 26/17 Q1006 BECMG TL0230 22005KT
RJGG 030130Z 32003KT 9999 FEW020 BKN/// 25/17 Q1006 BECMG TL0200 22005KT
RJGG 030100Z 32005KT 9999 FEW020 BKN/// 24/17 Q1006 BECMG TL0200 25005KT
RJGG 030030Z 31006KT 9999 FEW020 BKN/// 24/18 Q1006 BECMG 25005KT
RJGG 030000Z 33006KT 9000 FEW020 BKN/// 24/18 Q1006 BECMG 24005KT
RJGG 022330Z 30006KT 9000 FEW020 BKN/// 24/17 Q1006 NOSIG
RJGG 022300Z 30005KT 9999 FEW020 SCT/// 23/18 Q1006 NOSIG
RJGG 022230Z 31005KT 9999 FEW020 23/18 Q1006 NOSIG
RJGG 022200Z 31005KT 9999 FEW020 23/18 Q1006 NOSIG
RJGG 022130Z 32005KT 9999 FEW020 22/17 Q1006 NOSIG
RJGG 022100Z 30006KT 9999 FEW020 SCT/// 22/17 Q1006 NOSIG
RJGG 022030Z 29006KT 9999 FEW020 BKN/// 22/18 Q1006 NOSIG
RJGG 022000Z 29005KT 8000 FEW020 BKN/// 22/18 Q1006 NOSIG
RJGG 021930Z 28008KT 8000 FEW020 SCT/// 22/18 Q1006 NOSIG
RJGG 021900Z 34003KT 9999 FEW020 BKN/// 21/19 Q1005 NOSIG
RJGG 021830Z 01002KT 9999 FEW005 SCT/// 21/18 Q1005 NOSIG
RJGG 021800Z 36005KT 9999 FEW030 SCT/// 20/18 Q1005 NOSIG
RJGG 021730Z 33008KT 9999 FEW030 SCT/// 22/20 Q1005 NOSIG
RJGG 021700Z 32009KT 9999 FEW030 SCT/// 22/20 Q1005 NOSIG
RJGG 021630Z 30009KT 9999 FEW030 SCT/// 22/17 Q1005 NOSIG
RJGG 021600Z 28011KT 9999 FEW030 SCT/// 22/17 Q1005 NOSIG
RJGG 021530Z 27008KT 9999 FEW030 SCT/// 22/17 Q1005 NOSIG
RJGG 021500Z 27006KT 9999 FEW030 SCT/// 23/17 Q1005 NOSIG
RJGG 021430Z 26006KT 9999 FEW030 SCT/// 23/18 Q1005 BECMG TL1530 30006KT
RJGG 021400Z 27006KT 9999 FEW030 SCT/// 23/17 Q1006 NOSIG
RJGG 021330Z 27008KT 9999 FEW030 SCT/// 23/17 Q1006 NOSIG
RJGG 021300Z 19009KT 9999 FEW030 SCT/// 23/20 Q1006 NOSIG
RJGG 021230Z 17006KT 9999 FEW030 BKN/// 22/20 Q1006 NOSIG
RJGG 021200Z 18006KT 9999 FEW030 SCT045 22/19 Q1006 NOSIG
RJGG 021130Z 17007KT 9999 FEW030 SCT/// 23/19 Q1006 NOSIG
RJGG 021100Z 16009KT 9999 FEW030 SCT/// 23/19 Q1005 NOSIG
RJGG 021030Z 17010KT 9999 FEW030 SCT/// 23/19 Q1005 NOSIG
RJGG 021000Z 17010KT 9999 FEW030 23/19 Q1005 NOSIG
RJGG 020930Z 17012KT 9999 FEW030 SCT/// 24/20 Q1005 NOSIG
RJGG 020900Z 18011KT 9999 FEW030 SCT/// 24/20 Q1005 NOSIG
RJGG 020830Z 17013KT 9999 FEW030 25/20 Q1005 NOSIG
RJGG 020800Z 17013KT 9999 FEW030 SCT/// 25/20 Q1005 NOSIG
RJGG 020730Z 17012KT 9999 FEW030 SCT/// 26/20 Q1005 NOSIG
RJGG 020700Z 17011KT 9999 FEW030 SCT/// 26/20 Q1005 NOSIG
RJGG 020630Z 17012KT 9999 FEW030 BKN/// 26/20 Q1005 NOSIG
RJGG 020600Z 17013KT 9999 FEW030 BKN/// 26/21 Q1005 NOSIG
RJGG 020530Z 17012KT 9999 FEW030 BKN/// 26/20 Q1006 NOSIG
RJGG 020500Z 17011KT 9999 FEW030 BKN/// 26/20 Q1006 NOSIG
RJGG 020430Z 25003KT 9999 FEW030 BKN/// 28/17 Q1006 NOSIG
RJGG 020400Z 25002KT 9999 FEW030 BKN/// 28/17 Q1006 NOSIG
RJGG 020330Z VRB02KT 9999 FEW020 27/16 Q1006 BECMG TL0400 24005KT
RJGG 020300Z 33005KT 9999 FEW020 27/16 Q1007 BECMG TL0400 24005KT
RJGG 020230Z 32004KT 290V360 9999 FEW020 26/18 Q1007 BECMG TL0330 24005KT
RJGG 020200Z 31005KT 9999 FEW020 26/16 Q1007 BECMG TL0300 24005KT
RJGG 020130Z 28004KT 180V320 9999 FEW015 25/19 Q1008 BECMG TL0230 24005KT
RJGG 020100Z 29003KT 9999 FEW015 24/19 Q1008 BECMG TL0230 24005KT
RJGG 020030Z VRB02KT 9999 FEW015 23/19 Q1008 BECMG 24005KT
RJGG 020000Z VRB02KT 9999 FEW015 24/20 Q1008 BECMG 24005KT
RJGG 012330Z VRB02KT 9999 FEW010 23/19 Q1009 NOSIG
RJGG 012300Z VRB02KT 9999 FEW010 BKN/// 23/20 Q1009 NOSIG
RJGG 012230Z 22003KT 9999 FEW005 SCT/// 22/20 Q1009 NOSIG
RJGG 012200Z VRB02KT 9999 FEW005 22/20 Q1009 NOSIG
RJGG 012130Z 15003KT 110V180 9999 FEW005 SCT/// 21/19 Q1008 NOSIG
RJGG 012100Z 14003KT 9999 FEW005 SCT/// 21/19 Q1008 NOSIG
RJGG 012030Z VRB01KT 9999 FEW006 SCT070 21/19 Q1008 NOSIG
RJGG 012000Z 17003KT 9999 FEW010 SCT100 20/18 Q1008 NOSIG
RJGG 011930Z 00000KT 9999 FEW010 SCT100 21/19 Q1008 NOSIG
RJGG 011900Z 27003KT 9999 FEW005 SCT040 BKN060 21/19 Q1008 NOSIG
RJGG 011830Z 00000KT 9999 FEW005 BKN050 BKN100 21/19 Q1008 NOSIG
RJGG 011800Z 17002KT 9999 FEW005 BKN060 20/19 Q1007 NOSIG
RJGG 011730Z 16001KT 9999 VCSH FEW005 BKN060 21/19 Q1008 NOSIG
RJGG 011700Z 22003KT 9999 VCSH FEW005 BKN060 21/19 Q1008 NOSIG
RJGG 011630Z 16004KT 9999 FEW005 BKN060 21/19 Q1007 NOSIG
RJGG 011600Z 18003KT 9999 VCSH FEW010 SCT020 BKN060 21/19 Q1008 NOSIG
RJGG 011530Z 17004KT 9999 VCSH FEW010 BKN020 21/19 Q1008 NOSIG
RJGG 011500Z 20005KT 9999 VCSH FEW010 BKN020 21/19 Q1009 NOSIG
RJGG 011430Z 19005KT 9999 FEW010 SCT020 BKN080 21/19 Q1009 NOSIG